Time;durP1;ratioP1;P1;durP2;ratioP2;P2;SDS_P1;SDS_P2;PMS_P1;PMS_P2;Temp;Humidity;BMP_temperature;BMP_pressure;BME280_temperature;BME280_humidity;BME280_pressure;Samples;Min_cycle;Max_cycle;Signal;HPM_P1;HPM_P2
2023/11/17 00:02:07;;;;;;;6.38;3.70;;;3.20;99.90;;;;;;4992206;28;20041;-61
2023/11/17 00:04:33;;;;;;;11.75;4.10;;;3.20;99.90;;;;;;4988788;28;20397;-61
2023/11/17 00:06:58;;;;;;;8.07;5.00;;;3.20;99.90;;;;;;4990725;28;20041;-61
2023/11/17 00:09:24;;;;;;;6.72;4.53;;;3.20;99.90;;;;;;4989491;28;21096;-61
2023/11/17 00:11:50;;;;;;;8.75;5.00;;;3.20;99.90;;;;;;4981508;28;20038;-61
2023/11/17 00:14:15;;;;;;;8.48;4.63;;;3.20;99.90;;;;;;4988120;28;20128;-62
2023/11/17 00:16:41;;;;;;;9.80;4.70;;;3.20;99.90;;;;;;4982341;28;20049;-61
2023/11/17 00:19:06;;;;;;;10.68;5.22;;;3.20;99.90;;;;;;4991399;28;20077;-61
2023/11/17 00:21:34;;;;;;;9.80;5.43;;;3.20;99.90;;;;;;4994246;28;20053;-61
2023/11/17 00:24:00;;;;;;;9.38;4.65;;;3.20;99.90;;;;;;4988349;28;20042;-61
2023/11/17 00:26:25;;;;;;;9.85;5.32;;;3.20;99.90;;;;;;4987765;28;20165;-61
2023/11/17 00:28:51;;;;;;;11.20;6.10;;;3.20;99.90;;;;;;4988230;28;20042;-61
2023/11/17 00:31:17;;;;;;;8.18;5.90;;;3.20;99.90;;;;;;4988095;28;20538;-61
2023/11/17 00:33:42;;;;;;;8.82;5.78;;;3.20;99.90;;;;;;4988454;28;20604;-61
2023/11/17 00:36:09;;;;;;;8.50;6.10;;;3.20;99.90;;;;;;4988368;28;20476;-61
2023/11/17 00:38:36;;;;;;;8.73;5.40;;;3.20;99.90;;;;;;4980815;28;20410;-61
2023/11/17 00:41:03;;;;;;;11.27;5.85;;;3.20;99.90;;;;;;4954737;28;20042;-61
2023/11/17 00:43:29;;;;;;;10.63;6.13;;;3.20;99.90;;;;;;4969846;28;20513;-61
2023/11/17 00:45:59;;;;;;;10.05;6.00;;;3.20;99.90;;;;;;4970711;28;20425;-61
2023/11/17 00:48:29;;;;;;;7.78;5.72;;;3.20;99.90;;;;;;4970458;28;20550;-62
2023/11/17 00:50:55;;;;;;;7.57;5.07;;;3.20;99.90;;;;;;4988456;28;20042;-61
2023/11/17 00:53:29;;;;;;;8.20;5.47;;;3.20;99.90;;;;;;4988585;28;20165;-61
2023/11/17 00:55:58;;;;;;;9.20;5.35;;;3.20;99.90;;;;;;4987598;28;20116;-61
2023/11/17 00:58:25;;;;;;;7.55;5.22;;;3.20;99.90;;;;;;4987992;28;20046;-61
2023/11/17 01:00:56;;;;;;;8.10;5.30;;;3.20;99.90;;;;;;4987765;28;20449;-61
2023/11/17 01:03:22;;;;;;;13.52;6.32;;;3.10;99.90;;;;;;4988147;28;20397;-61
2023/11/17 01:05:48;;;;;;;14.15;7.68;;;3.10;99.90;;;;;;4987518;28;20074;-61
2023/11/17 01:08:13;;;;;;;12.80;6.82;;;3.10;99.90;;;;;;4981079;28;20045;-61
2023/11/17 01:10:39;;;;;;;10.05;5.80;;;3.10;99.90;;;;;;4987853;28;20537;-62
2023/11/17 01:13:06;;;;;;;9.90;6.43;;;3.10;99.90;;;;;;4973808;28;20046;-61
2023/11/17 01:15:34;;;;;;;8.00;6.07;;;3.10;99.90;;;;;;4979814;28;20045;-61
2023/11/17 01:18:04;;;;;;;12.15;6.57;;;3.10;99.90;;;;;;4984711;28;20493;-61
2023/11/17 01:20:31;;;;;;;10.73;6.05;;;3.10;99.90;;;;;;4988122;28;20038;-61
2023/11/17 01:23:01;;;;;;;10.73;6.78;;;3.10;99.90;;;;;;4987354;28;20122;-61
2023/11/17 01:25:28;;;;;;;9.57;7.10;;;3.10;99.90;;;;;;4985700;28;20048;-61
2023/11/17 01:27:54;;;;;;;10.00;6.72;;;3.20;99.90;;;;;;4982784;28;20035;-61
2023/11/17 01:30:19;;;;;;;8.82;6.65;;;3.20;99.90;;;;;;4981154;28;20046;-61
2023/11/17 01:32:45;;;;;;;11.25;7.30;;;3.20;99.90;;;;;;4987430;28;20034;-61
2023/11/17 01:35:11;;;;;;;9.80;7.10;;;3.20;99.90;;;;;;4969445;28;20049;-61
2023/11/17 01:37:36;;;;;;;10.65;7.60;;;3.20;99.90;;;;;;4992626;28;20588;-61
2023/11/17 01:40:05;;;;;;;10.98;7.47;;;3.20;99.90;;;;;;4987530;28;20070;-61
2023/11/17 01:42:32;;;;;;;11.95;7.18;;;3.30;99.90;;;;;;4986833;28;20038;-62
2023/11/17 01:44:58;;;;;;;8.98;6.80;;;3.30;99.90;;;;;;4985702;28;20077;-61
2023/11/17 01:47:24;;;;;;;9.32;6.70;;;3.30;99.90;;;;;;4987147;28;20042;-61
2023/11/17 01:49:50;;;;;;;8.82;6.50;;;3.30;99.90;;;;;;4987282;28;20174;-61
2023/11/17 01:52:17;;;;;;;9.02;6.30;;;3.30;99.90;;;;;;4989925;28;20043;-61
2023/11/17 01:54:45;;;;;;;11.45;6.57;;;3.20;99.90;;;;;;4969525;28;20121;-61
2023/11/17 01:57:11;;;;;;;9.27;6.38;;;3.20;99.90;;;;;;4987160;28;20042;-62
2023/11/17 01:59:37;;;;;;;9.50;6.20;;;3.20;99.90;;;;;;4986315;28;20089;-62
2023/11/17 02:02:04;;;;;;;8.77;6.22;;;3.20;99.90;;;;;;4986720;28;20124;-61
2023/11/17 02:04:32;;;;;;;8.27;5.70;;;3.20;99.90;;;;;;4986132;28;20054;-61
2023/11/17 02:07:23;;;;;;;11.40;6.50;;;3.20;99.90;;;;;;4969711;28;20408;-62
2023/11/17 02:10:13;;;;;;;9.48;5.82;;;3.10;99.90;;;;;;4978712;28;20027;-61
2023/11/17 02:12:48;;;;;;;7.65;5.40;;;3.10;99.90;;;;;;4979788;28;20128;-61
2023/11/17 02:15:21;;;;;;;7.47;5.50;;;3.10;99.90;;;;;;4984036;28;20074;-62
2023/11/17 02:17:54;;;;;;;8.80;5.55;;;3.30;99.90;;;;;;4969234;28;20050;-62
2023/11/17 02:20:25;;;;;;;9.05;6.18;;;3.10;99.90;;;;;;4986634;28;20394;-61
2023/11/17 02:22:54;;;;;;;8.00;5.35;;;3.10;99.90;;;;;;4992525;28;20109;-62
2023/11/17 02:25:23;;;;;;;7.25;5.30;;;3.00;99.90;;;;;;4986722;28;20117;-62
2023/11/17 02:28:07;;;;;;;7.63;5.35;;;3.00;99.90;;;;;;4986582;28;20406;-61
2023/11/17 02:30:34;;;;;;;9.18;5.93;;;3.00;99.90;;;;;;4979388;28;20387;-61
2023/11/17 02:33:00;;;;;;;7.35;5.65;;;3.00;99.90;;;;;;4990285;28;20042;-61
2023/11/17 02:35:28;;;;;;;7.97;5.05;;;3.00;99.90;;;;;;4988674;28;20046;-61
2023/11/17 02:37:57;;;;;;;7.25;4.97;;;2.90;99.90;;;;;;4987017;28;20030;-61
2023/11/17 02:40:23;;;;;;;7.07;5.22;;;2.90;99.90;;;;;;4972591;28;20043;-61
2023/11/17 02:42:53;;;;;;;7.70;5.18;;;2.90;99.90;;;;;;4969506;28;20050;-62
2023/11/17 02:45:25;;;;;;;8.93;5.35;;;2.90;99.90;;;;;;4970527;28;20057;-61
2023/11/17 02:47:51;;;;;;;6.95;4.97;;;2.90;99.90;;;;;;4990473;28;20038;-61
2023/11/17 02:50:19;;;;;;;8.80;6.05;;;2.80;99.90;;;;;;4990215;28;20053;-62
2023/11/17 02:53:06;;;;;;;9.73;6.10;;;2.80;99.90;;;;;;4987800;28;20250;-61
2023/11/17 02:55:37;;;;;;;9.70;6.07;;;2.80;99.90;;;;;;4984088;28;20117;-62
2023/11/17 02:58:04;;;;;;;8.70;5.72;;;2.80;99.90;;;;;;4988110;28;20529;-61
2023/11/17 03:00:31;;;;;;;10.55;6.22;;;2.80;99.90;;;;;;4989856;28;20070;-62
2023/11/17 03:03:05;;;;;;;8.38;5.93;;;2.80;99.90;;;;;;4989641;28;20453;-62
2023/11/17 03:05:31;;;;;;;8.80;6.10;;;2.80;99.90;;;;;;4989352;28;20073;-62
2023/11/17 03:07:56;;;;;;;10.20;6.60;;;2.80;99.90;;;;;;4990111;28;20073;-61
2023/11/17 03:10:24;;;;;;;8.55;6.07;;;2.80;99.90;;;;;;4989661;28;20486;-61
2023/11/17 03:12:55;;;;;;;9.60;6.60;;;2.80;99.90;;;;;;4989561;28;20045;-61
2023/11/17 03:15:22;;;;;;;10.38;7.07;;;2.80;99.90;;;;;;4989934;28;20406;-61
2023/11/17 03:17:49;;;;;;;9.25;6.13;;;2.80;99.90;;;;;;4989417;28;20042;-62
2023/11/17 03:20:15;;;;;;;10.48;6.95;;;2.70;99.90;;;;;;4988777;28;20089;-62
2023/11/17 03:22:44;;;;;;;10.38;6.50;;;2.70;99.90;;;;;;4989308;28;20066;-62
2023/11/17 03:25:15;;;;;;;10.63;6.53;;;2.70;99.90;;;;;;4989503;28;20066;-61
2023/11/17 03:27:42;;;;;;;9.98;7.03;;;2.70;99.90;;;;;;4971808;28;20073;-62
2023/11/17 03:30:09;;;;;;;10.55;6.97;;;2.70;99.90;;;;;;4989537;28;20849;-62
2023/11/17 03:32:36;;;;;;;11.45;7.43;;;2.70;99.90;;;;;;4971325;28;20035;-61
2023/11/17 03:35:03;;;;;;;12.38;7.50;;;2.70;99.90;;;;;;4983252;28;20414;-62
2023/11/17 03:37:32;;;;;;;15.35;8.60;;;2.70;99.90;;;;;;4988819;28;20148;-62
2023/11/17 03:39:58;;;;;;;11.98;7.75;;;2.70;99.90;;;;;;4989227;28;20494;-61
2023/11/17 03:42:23;;;;;;;11.70;7.88;;;2.70;99.90;;;;;;4979434;28;20037;-62
2023/11/17 03:44:49;;;;;;;11.20;7.55;;;2.80;99.90;;;;;;4987258;28;20046;-62
2023/11/17 03:47:15;;;;;;;11.13;8.10;;;2.70;99.90;;;;;;4988846;28;20126;-62
2023/11/17 03:49:43;;;;;;;10.98;7.65;;;2.80;99.90;;;;;;4989022;28;20497;-62
2023/11/17 03:52:14;;;;;;;12.20;8.25;;;2.80;99.90;;;;;;4988881;28;20453;-62
2023/11/17 03:54:40;;;;;;;13.10;8.13;;;2.80;99.90;;;;;;4988992;28;20046;-61
2023/11/17 03:57:06;;;;;;;12.30;7.75;;;2.80;99.90;;;;;;4988802;28;20445;-61
2023/11/17 03:59:32;;;;;;;12.48;7.90;;;2.80;99.90;;;;;;4989048;28;20473;-61
2023/11/17 04:01:58;;;;;;;12.20;8.10;;;2.80;99.90;;;;;;4988489;28;20532;-62
2023/11/17 04:04:25;;;;;;;12.95;8.55;;;2.80;99.90;;;;;;4988916;28;20042;-62
2023/11/17 04:06:52;;;;;;;12.60;8.63;;;2.80;99.90;;;;;;4988917;28;20038;-62
2023/11/17 04:09:23;;;;;;;12.75;8.48;;;2.80;99.90;;;;;;4989007;28;20497;-61
2023/11/17 04:11:50;;;;;;;13.60;8.30;;;2.80;99.90;;;;;;4996534;28;20048;-61
2023/11/17 04:14:16;;;;;;;11.50;7.93;;;2.80;99.90;;;;;;4988578;28;20078;-61
2023/11/17 04:16:42;;;;;;;13.40;7.95;;;2.80;99.90;;;;;;4988885;28;20045;-61
2023/11/17 04:19:08;;;;;;;9.98;7.65;;;2.80;99.90;;;;;;4988593;28;20398;-61
2023/11/17 04:21:35;;;;;;;14.98;8.30;;;2.80;99.90;;;;;;4988564;28;20042;-61
2023/11/17 04:24:01;;;;;;;13.60;7.85;;;2.80;99.90;;;;;;4988261;28;20113;-61
2023/11/17 04:26:29;;;;;;;13.75;8.23;;;2.80;99.90;;;;;;4987925;28;20109;-61
2023/11/17 04:28:54;;;;;;;14.02;8.18;;;2.80;99.90;;;;;;4988856;28;20070;-61
2023/11/17 04:31:20;;;;;;;13.77;8.60;;;2.80;99.90;;;;;;4988739;28;20093;-62
2023/11/17 04:33:48;;;;;;;13.25;8.75;;;2.80;99.90;;;;;;4988456;28;20046;-61
2023/11/17 04:36:14;;;;;;;15.52;8.32;;;2.80;99.90;;;;;;4988671;28;20042;-61
2023/11/17 04:38:40;;;;;;;12.73;8.27;;;2.80;99.90;;;;;;4988805;28;20509;-61
2023/11/17 04:41:06;;;;;;;13.10;8.60;;;2.80;99.90;;;;;;4988468;28;20045;-61
2023/11/17 04:43:32;;;;;;;11.70;8.13;;;2.80;99.90;;;;;;4971164;28;20057;-61
2023/11/17 04:45:59;;;;;;;11.13;8.30;;;2.80;99.90;;;;;;4988531;28;20046;-61
2023/11/17 04:48:24;;;;;;;12.70;8.05;;;2.80;99.90;;;;;;4988630;28;20472;-62
2023/11/17 04:50:50;;;;;;;13.05;8.70;;;2.80;99.90;;;;;;4991155;28;20074;-61
2023/11/17 04:53:16;;;;;;;12.23;7.65;;;2.70;99.90;;;;;;4988346;28;20113;-61
2023/11/17 04:55:45;;;;;;;12.77;8.23;;;2.80;99.90;;;;;;4989999;28;20046;-61
2023/11/17 04:58:14;;;;;;;12.45;7.68;;;2.70;99.90;;;;;;4988803;28;20096;-61
2023/11/17 05:00:42;;;;;;;11.70;8.10;;;2.70;99.90;;;;;;4987905;28;20120;-61
2023/11/17 05:03:08;;;;;;;11.73;7.97;;;2.70;99.90;;;;;;4985063;28;20121;-61
2023/11/17 05:05:34;;;;;;;15.55;8.52;;;2.70;99.90;;;;;;4980301;28;20117;-61
2023/11/17 05:07:59;;;;;;;12.52;8.32;;;2.70;99.90;;;;;;4985571;28;20513;-61
2023/11/17 05:10:26;;;;;;;12.00;7.45;;;2.60;99.90;;;;;;4986773;28;20042;-61
2023/11/17 05:12:53;;;;;;;14.98;8.30;;;2.70;99.90;;;;;;4965310;28;20386;-62
2023/11/17 05:15:20;;;;;;;11.23;7.95;;;2.60;99.90;;;;;;4974492;28;20042;-61
2023/11/17 05:17:50;;;;;;;12.23;8.23;;;2.60;99.90;;;;;;4988352;28;20038;-61
2023/11/17 05:20:16;;;;;;;10.80;7.85;;;2.60;99.90;;;;;;4970691;28;20061;-61
2023/11/17 05:22:43;;;;;;;11.45;7.97;;;2.50;99.90;;;;;;4987685;28;20038;-61
2023/11/17 05:25:11;;;;;;;12.40;8.38;;;2.50;99.90;;;;;;4970128;28;20124;-61
2023/11/17 05:27:38;;;;;;;12.32;7.63;;;2.50;99.90;;;;;;4992967;28;20045;-61
2023/11/17 05:30:05;;;;;;;11.07;8.20;;;2.50;99.90;;;;;;4988020;28;20042;-61
2023/11/17 05:32:31;;;;;;;12.35;7.88;;;2.50;99.90;;;;;;4970112;28;20053;-61
2023/11/17 05:34:57;;;;;;;11.52;7.25;;;2.50;99.90;;;;;;4970488;28;20038;-62
2023/11/17 05:37:23;;;;;;;12.32;7.65;;;2.50;99.90;;;;;;4987439;28;20516;-61
2023/11/17 05:39:49;;;;;;;11.68;7.57;;;2.50;99.90;;;;;;4988040;28;20034;-62
2023/11/17 05:42:14;;;;;;;10.07;7.35;;;2.50;99.90;;;;;;4987433;28;20081;-62
2023/11/17 05:44:40;;;;;;;11.18;7.65;;;2.50;99.90;;;;;;4987681;28;20074;-61
2023/11/17 05:47:08;;;;;;;11.25;7.38;;;2.40;99.90;;;;;;4987657;28;20478;-61
2023/11/17 05:49:41;;;;;;;14.07;7.80;;;2.40;99.90;;;;;;4980259;28;20034;-62
2023/11/17 05:52:07;;;;;;;;;;;2.40;99.90;;;;;;4987820;28;20074;-61
2023/11/17 05:54:33;;;;;;;9.60;7.10;;;2.40;99.90;;;;;;4987958;28;19922;-62
2023/11/17 05:56:59;;;;;;;17.40;7.78;;;2.40;99.90;;;;;;4987762;28;20081;-62
2023/11/17 05:59:24;;;;;;;12.02;7.93;;;2.40;99.90;;;;;;4987943;28;20050;-62
2023/11/17 06:01:51;;;;;;;12.18;7.35;;;2.40;99.90;;;;;;4987218;28;20046;-61
2023/11/17 06:04:16;;;;;;;10.85;7.15;;;2.40;99.90;;;;;;4987369;28;20129;-61
2023/11/17 06:06:42;;;;;;;9.95;7.13;;;2.40;99.90;;;;;;4987348;28;20465;-61
2023/11/17 06:09:12;;;;;;;13.45;7.25;;;2.40;99.90;;;;;;4987373;28;20101;-62
2023/11/17 06:11:39;;;;;;;11.85;8.02;;;2.30;99.90;;;;;;4987431;28;20100;-61
2023/11/17 06:14:06;;;;;;;12.40;8.00;;;2.30;99.90;;;;;;4991017;28;20078;-61
2023/11/17 06:16:33;;;;;;;11.05;8.05;;;2.30;99.90;;;;;;4991194;28;20052;-61
2023/11/17 06:19:02;;;;;;;11.63;8.15;;;2.30;99.90;;;;;;4973465;28;20039;-61
2023/11/17 06:21:28;;;;;;;11.32;8.52;;;2.40;99.90;;;;;;4990996;28;20046;-62
2023/11/17 06:23:54;;;;;;;13.57;8.00;;;2.30;99.90;;;;;;4985399;28;20486;-61
2023/11/17 06:26:19;;;;;;;13.30;8.90;;;2.30;99.90;;;;;;4988466;28;20125;-61
2023/11/17 06:28:46;;;;;;;10.73;7.70;;;2.40;99.90;;;;;;4990436;28;20038;-62
2023/11/17 06:31:13;;;;;;;12.40;8.43;;;2.30;99.90;;;;;;4973224;28;20047;-61
2023/11/17 06:33:39;;;;;;;12.77;8.60;;;2.40;99.90;;;;;;4990911;28;20035;-61
2023/11/17 06:36:06;;;;;;;11.30;8.30;;;2.30;99.90;;;;;;4990949;28;20111;-61
2023/11/17 06:38:33;;;;;;;12.10;9.00;;;2.30;99.90;;;;;;4973297;28;20081;-61
2023/11/17 06:41:03;;;;;;;14.45;8.90;;;2.40;99.90;;;;;;4986458;28;20429;-61
2023/11/17 06:43:31;;;;;;;11.50;8.07;;;2.40;99.90;;;;;;4990192;28;20126;-61
2023/11/17 06:45:56;;;;;;;12.23;8.48;;;2.30;99.90;;;;;;4990186;28;20117;-61
2023/11/17 06:48:24;;;;;;;13.82;8.68;;;2.40;99.90;;;;;;4987421;28;20188;-62
2023/11/17 06:50:50;;;;;;;13.13;8.80;;;2.40;99.90;;;;;;4990619;28;20088;-61
2023/11/17 06:53:15;;;;;;;14.30;9.25;;;2.40;99.90;;;;;;4990425;28;20042;-61
2023/11/17 06:55:41;;;;;;;14.88;8.95;;;2.40;99.90;;;;;;4972910;28;20065;-61
2023/11/17 06:58:07;;;;;;;13.60;8.68;;;2.40;99.90;;;;;;4990208;28;20045;-61
2023/11/17 07:00:32;;;;;;;13.00;8.63;;;2.40;99.90;;;;;;4989860;28;20118;-61
2023/11/17 07:03:01;;;;;;;12.95;8.70;;;2.40;99.90;;;;;;4988547;28;20038;-61
2023/11/17 07:05:29;;;;;;;11.95;8.27;;;2.40;99.90;;;;;;4987012;28;20092;-61
2023/11/17 07:07:57;;;;;;;14.88;9.05;;;2.40;99.90;;;;;;4973085;28;20034;-61
2023/11/17 07:10:25;;;;;;;13.43;9.00;;;2.40;99.90;;;;;;4972152;28;20113;-61
2023/11/17 07:12:54;;;;;;;13.25;8.60;;;2.40;99.90;;;;;;4989102;28;20434;-61
2023/11/17 07:15:20;;;;;;;11.73;7.97;;;2.40;99.90;;;;;;4989526;28;20046;-61
2023/11/17 07:17:46;;;;;;;12.02;8.45;;;2.40;99.90;;;;;;4986862;28;20042;-61
2023/11/17 07:20:12;;;;;;;11.55;7.75;;;2.40;99.90;;;;;;4988038;28;20560;-61
2023/11/17 07:22:39;;;;;;;11.55;7.75;;;2.40;99.90;;;;;;4990227;28;20045;-61
2023/11/17 07:25:05;;;;;;;10.30;7.40;;;2.40;99.90;;;;;;4985042;28;20520;-61
2023/11/17 07:27:30;;;;;;;10.75;7.40;;;2.40;99.90;;;;;;4990385;28;20042;-61
2023/11/17 07:29:57;;;;;;;12.68;7.78;;;2.40;99.90;;;;;;4990117;28;20047;-61
2023/11/17 07:32:23;;;;;;;11.45;7.35;;;2.40;99.90;;;;;;4989950;28;20053;-61
2023/11/17 07:34:50;;;;;;;11.88;7.82;;;2.50;99.90;;;;;;4989479;28;20038;-61
2023/11/17 07:37:16;;;;;;;12.23;7.57;;;2.50;99.90;;;;;;4979443;28;20037;-61
2023/11/17 07:39:41;;;;;;;11.15;7.40;;;2.50;99.90;;;;;;4972391;28;20041;-61
2023/11/17 07:42:08;;;;;;;11.27;8.10;;;2.50;99.90;;;;;;4989622;28;20055;-61
2023/11/17 07:44:38;;;;;;;12.98;8.15;;;2.50;99.90;;;;;;4982981;28;20133;-61
2023/11/17 07:47:04;;;;;;;11.80;7.97;;;2.50;99.90;;;;;;4972538;28;20042;-61
2023/11/17 07:49:30;;;;;;;12.82;7.85;;;2.50;99.90;;;;;;4965753;28;20128;-61
2023/11/17 07:51:57;;;;;;;11.68;8.00;;;2.50;99.90;;;;;;4989524;28;20034;-61
2023/11/17 07:54:23;;;;;;;12.25;8.55;;;2.50;99.90;;;;;;4983161;28;20418;-61
2023/11/17 07:56:50;;;;;;;12.52;8.45;;;2.50;99.90;;;;;;4988136;28;20038;-61
2023/11/17 07:59:19;;;;;;;11.93;7.93;;;2.60;99.90;;;;;;4995585;28;20092;-61
2023/11/17 08:01:45;;;;;;;12.43;8.27;;;2.50;99.90;;;;;;4990060;28;20038;-61
2023/11/17 08:04:11;;;;;;;12.82;8.50;;;2.60;99.90;;;;;;4989289;28;20050;-61
2023/11/17 08:06:37;;;;;;;12.70;8.73;;;2.60;99.90;;;;;;4989620;28;20547;-61
2023/11/17 08:09:04;;;;;;;13.55;8.90;;;2.60;99.90;;;;;;4988979;28;20108;-61
2023/11/17 08:11:30;;;;;;;13.18;8.90;;;2.60;99.90;;;;;;4989572;28;21049;-61
2023/11/17 08:13:57;;;;;;;15.75;9.07;;;2.60;99.90;;;;;;4991448;28;20042;-61
2023/11/17 08:16:23;;;;;;;16.02;9.77;;;2.60;99.90;;;;;;4990619;28;20039;-61
2023/11/17 08:18:53;;;;;;;18.13;10.25;;;2.60;99.90;;;;;;4989126;28;20031;-61
2023/11/17 08:21:18;;;;;;;21.70;11.15;;;2.70;99.90;;;;;;4988434;28;20045;-61
2023/11/17 08:23:44;;;;;;;20.98;12.48;;;2.70;99.90;;;;;;4989233;28;20390;-62
2023/11/17 08:26:14;;;;;;;21.27;12.35;;;2.70;99.90;;;;;;4973116;28;20041;-61
2023/11/17 08:28:40;;;;;;;24.60;13.85;;;2.70;99.90;;;;;;4984196;28;20532;-61
2023/11/17 08:31:06;;;;;;;24.67;14.82;;;2.80;99.90;;;;;;4997300;28;20050;-61
2023/11/17 08:33:32;;;;;;;25.40;14.43;;;2.80;99.90;;;;;;4971260;28;20049;-61
2023/11/17 08:35:57;;;;;;;25.40;14.27;;;2.90;99.90;;;;;;4985779;28;20112;-62
2023/11/17 08:38:25;;;;;;;25.45;15.00;;;2.90;99.90;;;;;;4988551;28;20145;-62
2023/11/17 08:40:55;;;;;;;24.10;14.52;;;3.00;99.90;;;;;;4988864;28;20056;-62
2023/11/17 08:43:21;;;;;;;28.13;14.93;;;3.00;99.90;;;;;;4988947;28;20495;-61
2023/11/17 08:45:51;;;;;;;30.63;16.58;;;3.00;99.90;;;;;;4988642;28;20487;-61
2023/11/17 08:48:16;;;;;;;32.55;17.65;;;3.10;99.90;;;;;;4984935;28;20030;-61
2023/11/17 08:50:42;;;;;;;29.20;16.90;;;3.20;99.90;;;;;;4985102;28;20092;-61
2023/11/17 08:53:08;;;;;;;32.63;17.45;;;3.20;99.90;;;;;;4988356;28;20490;-61
2023/11/17 08:55:34;;;;;;;33.72;18.15;;;3.20;99.90;;;;;;4988426;28;20042;-62
2023/11/17 08:57:59;;;;;;;37.22;19.63;;;3.30;99.90;;;;;;4988935;28;20038;-62
2023/11/17 09:00:25;;;;;;;36.70;18.48;;;3.40;99.90;;;;;;4988389;28;20035;-62
2023/11/17 09:02:52;;;;;;;35.03;18.80;;;3.40;99.90;;;;;;4988231;28;20049;-62
2023/11/17 09:05:19;;;;;;;35.75;19.20;;;3.50;99.90;;;;;;4985286;28;20486;-62
2023/11/17 09:07:46;;;;;;;37.00;18.35;;;3.50;99.90;;;;;;4970803;28;20034;-62
2023/11/17 09:10:22;;;;;;;33.17;18.55;;;3.60;99.90;;;;;;4987571;28;20049;-62
2023/11/17 09:12:49;;;;;;;38.80;18.33;;;3.70;99.90;;;;;;4981888;28;20041;-62
2023/11/17 09:15:18;;;;;;;37.03;18.48;;;3.80;99.90;;;;;;4987381;28;20109;-62
2023/11/17 09:17:47;;;;;;;37.55;19.33;;;3.80;99.90;;;;;;4985506;28;20049;-62
2023/11/17 09:20:13;;;;;;;37.30;18.65;;;3.90;99.90;;;;;;4985231;28;20050;-62
2023/11/17 09:22:40;;;;;;;38.42;20.20;;;4.00;99.90;;;;;;4987975;28;20486;-62
2023/11/17 09:25:15;;;;;;;34.22;18.13;;;4.10;99.90;;;;;;4980616;28;20081;-62
2023/11/17 09:27:48;;;;;;;37.72;18.73;;;4.10;99.90;;;;;;4983536;28;20066;-62
2023/11/17 09:30:15;;;;;;;37.03;19.42;;;4.20;99.90;;;;;;4979665;28;20056;-62
2023/11/17 09:32:48;;;;;;;38.28;18.80;;;4.30;99.90;;;;;;4983308;28;20043;-62
2023/11/17 09:35:17;;;;;;;33.33;18.83;;;4.40;99.90;;;;;;4984765;28;20045;-62
2023/11/17 09:37:50;;;;;;;34.42;18.23;;;4.50;99.90;;;;;;4970417;28;20501;-62
2023/11/17 09:40:20;;;;;;;35.13;16.80;;;4.60;99.90;;;;;;4967816;28;20457;-62
2023/11/17 09:42:52;;;;;;;31.80;16.42;;;4.70;99.90;;;;;;4987533;28;20038;-62
2023/11/17 09:45:25;;;;;;;30.67;16.10;;;4.80;99.90;;;;;;4989849;28;20056;-62
2023/11/17 09:47:58;;;;;;;31.38;15.18;;;4.90;99.90;;;;;;4972504;28;20050;-62
2023/11/17 09:50:29;;;;;;;28.88;15.85;;;5.00;99.90;;;;;;4989813;28;20058;-62
2023/11/17 09:52:57;;;;;;;29.42;15.68;;;5.00;99.90;;;;;;4991300;28;20560;-62
2023/11/17 09:55:28;;;;;;;29.77;15.20;;;5.10;99.90;;;;;;4990077;28;20046;-62
2023/11/17 09:57:57;;;;;;;31.33;15.88;;;5.10;99.90;;;;;;4957184;28;20042;-62
2023/11/17 10:00:27;;;;;;;30.73;15.32;;;5.20;99.90;;;;;;4983379;28;20038;-62
2023/11/17 10:02:54;;;;;;;28.17;15.10;;;5.30;99.90;;;;;;4986549;28;20076;-62
2023/11/17 10:05:41;;;;;;;25.98;14.73;;;5.40;99.90;;;;;;4997527;28;20046;-63
2023/11/17 10:08:17;;;;;;;24.13;14.43;;;5.40;99.90;;;;;;4973742;28;20176;-62
2023/11/17 10:10:44;;;;;;;30.02;15.55;;;5.50;99.90;;;;;;4984208;28;20367;-63
2023/11/17 10:13:12;;;;;;;29.92;15.20;;;5.50;99.90;;;;;;4973567;28;20058;-63
2023/11/17 10:15:44;;;;;;;27.20;13.65;;;5.50;99.90;;;;;;4985211;28;20050;-62
2023/11/17 10:18:16;;;;;;;25.38;13.65;;;5.50;99.90;;;;;;4991242;28;20516;-63
2023/11/17 10:20:42;;;;;;;23.38;13.50;;;5.50;99.90;;;;;;4987291;28;20050;-63
2023/11/17 10:23:08;;;;;;;23.73;13.05;;;5.50;99.90;;;;;;4967694;28;20051;-63
2023/11/17 10:25:34;;;;;;;25.60;13.25;;;5.50;99.90;;;;;;4990253;28;20022;-63
2023/11/17 10:28:02;;;;;;;27.65;14.45;;;5.50;99.90;;;;;;4954372;28;20126;-63
2023/11/17 10:30:41;;;;;;;24.40;12.98;;;5.50;99.90;;;;;;4989796;28;20045;-63
2023/11/17 10:33:13;;;;;;;24.35;12.75;;;5.50;99.90;;;;;;4986986;28;20062;-63
2023/11/17 10:35:43;;;;;;;22.88;13.35;;;5.50;99.90;;;;;;4984056;28;20041;-63
2023/11/17 10:38:14;;;;;;;31.25;13.13;;;5.60;99.90;;;;;;4987356;28;20042;-63
2023/11/17 10:40:41;;;;;;;27.83;13.25;;;5.60;99.90;;;;;;4990986;28;20034;-63
2023/11/17 10:43:15;;;;;;;24.02;12.57;;;5.70;99.90;;;;;;4982648;28;20050;-63
2023/11/17 10:45:43;;;;;;;22.02;12.02;;;5.70;99.90;;;;;;4975330;28;20101;-63
2023/11/17 10:48:13;;;;;;;21.20;12.18;;;5.80;99.90;;;;;;4996267;28;20386;-63
2023/11/17 10:50:42;;;;;;;22.05;12.15;;;5.90;99.90;;;;;;4983030;28;20030;-63
2023/11/17 10:53:23;;;;;;;18.13;11.45;;;5.90;99.90;;;;;;4974278;28;20605;-63
2023/11/17 10:55:50;;;;;;;23.42;11.25;;;5.90;99.90;;;;;;4984083;28;20105;-63
2023/11/17 10:58:15;;;;;;;24.00;10.73;;;6.00;99.90;;;;;;4971735;28;20042;-63
2023/11/17 11:00:43;;;;;;;17.33;10.63;;;6.00;99.90;;;;;;4990002;28;20088;-63
2023/11/17 11:03:10;;;;;;;20.63;11.07;;;6.10;99.90;;;;;;4991744;28;20042;-63
2023/11/17 11:05:38;;;;;;;19.23;11.02;;;6.10;99.90;;;;;;4982041;28;20088;-63
2023/11/17 11:08:12;;;;;;;20.45;10.07;;;6.20;99.90;;;;;;4990302;28;20493;-63
2023/11/17 11:10:38;;;;;;;20.17;10.45;;;6.20;99.90;;;;;;4968500;28;20050;-63
2023/11/17 11:13:05;;;;;;;19.38;10.77;;;6.20;99.90;;;;;;4989871;28;20498;-63
2023/11/17 11:15:32;;;;;;;21.85;10.23;;;6.30;99.90;;;;;;4986958;28;20450;-63
2023/11/17 11:18:03;;;;;;;17.50;9.52;;;6.40;99.90;;;;;;4977417;28;20042;-62
2023/11/17 11:20:31;;;;;;;18.38;10.00;;;6.40;99.90;;;;;;4990289;28;20259;-62
2023/11/17 11:22:57;;;;;;;17.55;9.15;;;6.50;99.90;;;;;;4989661;28;20100;-62
2023/11/17 11:25:27;;;;;;;16.45;9.18;;;6.50;99.90;;;;;;4970501;28;20062;-63
2023/11/17 11:27:54;;;;;;;17.80;9.10;;;6.70;99.90;;;;;;4977161;28;20129;-63
2023/11/17 11:30:22;;;;;;;13.95;8.55;;;6.70;99.90;;;;;;4989447;28;20050;-63
2023/11/17 11:32:48;;;;;;;15.70;8.85;;;6.80;99.90;;;;;;4985181;28;20067;-63
2023/11/17 11:35:15;;;;;;;15.85;8.52;;;6.90;99.90;;;;;;4985020;28;20069;-63
2023/11/17 11:37:40;;;;;;;16.25;8.05;;;6.90;99.90;;;;;;4971322;28;20041;-63
2023/11/17 11:40:11;;;;;;;15.32;8.23;;;7.00;99.90;;;;;;4971737;28;20117;-63
2023/11/17 11:42:41;;;;;;;13.40;7.30;;;7.00;99.90;;;;;;4981268;28;20037;-63
2023/11/17 11:45:09;;;;;;;12.02;7.53;;;7.10;99.90;;;;;;4989094;28;20089;-62
2023/11/17 11:47:36;;;;;;;14.68;8.00;;;7.20;99.90;;;;;;4971531;28;20050;-63
2023/11/17 11:50:03;;;;;;;13.75;8.00;;;7.20;99.90;;;;;;4989457;28;20046;-63
2023/11/17 11:52:38;;;;;;;12.10;7.40;;;7.30;99.90;;;;;;4955204;28;20160;-63
2023/11/17 11:55:06;;;;;;;12.27;7.40;;;7.40;99.90;;;;;;4993964;28;20037;-62
2023/11/17 11:57:34;;;;;;;14.18;7.72;;;7.40;99.90;;;;;;4972220;28;20375;-62
2023/11/17 12:00:12;;;;;;;13.32;7.03;;;7.50;99.90;;;;;;4991685;28;20507;-63
2023/11/17 12:02:59;;;;;;;13.38;7.40;;;7.60;99.90;;;;;;4988436;28;20509;-63
2023/11/17 12:05:34;;;;;;;11.75;7.18;;;7.60;99.90;;;;;;4990278;28;20109;-62
2023/11/17 12:08:24;;;;;;;14.98;7.28;;;7.60;99.90;;;;;;4968490;28;20046;-63
2023/11/17 12:10:53;;;;;;;11.70;7.05;;;7.60;99.90;;;;;;4983875;28;20034;-62
2023/11/17 12:13:41;;;;;;;10.88;7.05;;;7.50;99.90;;;;;;4987293;28;20042;-62
2023/11/17 12:16:18;;;;;;;15.90;7.22;;;7.50;99.90;;;;;;4987656;28;20948;-62
2023/11/17 12:18:48;;;;;;;13.05;7.38;;;7.50;99.90;;;;;;4987286;28;20121;-62
2023/11/17 12:21:18;;;;;;;14.27;7.35;;;7.50;99.90;;;;;;4986981;28;20089;-63
2023/11/17 12:23:55;;;;;;;12.10;7.15;;;7.60;99.90;;;;;;4970722;28;20046;-62
2023/11/17 12:26:22;;;;;;;14.38;6.97;;;7.60;99.90;;;;;;4986139;28;20038;-62
2023/11/17 12:28:48;;;;;;;12.32;7.30;;;7.70;99.90;;;;;;4970787;28;20045;-62
2023/11/17 12:31:21;;;;;;;12.50;6.68;;;8.00;99.90;;;;;;4954142;28;20049;-72
2023/11/17 12:33:49;;;;;;;14.70;7.82;;;7.80;99.90;;;;;;4970598;28;20117;-72
2023/11/17 12:36:20;;;;;;;14.27;7.05;;;7.80;99.90;;;;;;4987262;28;20877;-72
2023/11/17 12:38:53;;;;;;;13.98;7.20;;;7.80;99.90;;;;;;4988600;28;20133;-72
2023/11/17 12:41:25;;;;;;;14.63;7.40;;;7.90;99.90;;;;;;4970510;28;20044;-72
2023/11/17 12:43:51;;;;;;;14.23;7.60;;;7.90;99.90;;;;;;4970891;28;20046;-72
2023/11/17 12:46:18;;;;;;;18.05;8.05;;;8.00;99.90;;;;;;4988030;28;20048;-72
2023/11/17 12:48:45;;;;;;;13.43;7.85;;;8.10;99.90;;;;;;4988314;28;20046;-73
2023/11/17 12:51:21;;;;;;;12.73;7.70;;;8.20;99.90;;;;;;4987938;28;20461;-73